YSEN weather

Serpentine Airport
Western Australia, Australia

Public forecast

Using degrees Celsius for public forecast. Weather courtesy of forecast.io.

Closest aviation weather report (METAR) to Serpentine Airport

Closest report is Perth Jandakot Airport, 17.9 nm (33.1 km) N. Retrieved 2019/12/09 15:30 UTC (0 seconds ago):

YPJT 091530Z AUTO 18006KT 9999 // ////// 18/15 Q1019 RF000/0000

Closest aviation forecast (TAF) to Serpentine Airport

Forecast is more than 6 hours old.

Closest forecast is Perth Jandakot Airport, 17.9 nm (33.1 km) N. Retrieved 2019/12/09 06:00 UTC (9 hours ago):

TAF YPJT 090424Z 0906/1000 22018KT CAVOK FM091100 18012KT CAVOK FM091500 16010KT CAVOK FM092000 10008KT CAVOK